createdAt,value
2023-02-28T00:01:28.977Z,103198.84
2023-02-28T00:03:55.720Z,103188.59
2023-02-28T00:06:22.567Z,103190.72
2023-02-28T00:08:49.302Z,103199.44
2023-02-28T00:11:16.991Z,103197.53
2023-02-28T00:13:49.669Z,103205.25
2023-02-28T00:16:19.752Z,103205.88
2023-02-28T00:18:48.290Z,103205.25
2023-02-28T00:21:14.877Z,103208.38
2023-02-28T00:23:41.423Z,103208.81
2023-02-28T00:26:07.942Z,103204.69
2023-02-28T00:28:34.583Z,103203.44
2023-02-28T00:31:01.372Z,103209.31
2023-02-28T00:33:29.695Z,103202.06
2023-02-28T00:36:04.812Z,103189.41
2023-02-28T00:38:31.589Z,103198.03
2023-02-28T00:40:58.289Z,103193.44
2023-02-28T00:43:25.435Z,103195.16
2023-02-28T00:45:52.035Z,103198.78
2023-02-28T00:48:18.538Z,103202.38
2023-02-28T00:50:45.000Z,103196.22
2023-02-28T00:53:11.478Z,103199.63
2023-02-28T00:55:37.981Z,103192.38
2023-02-28T00:58:04.735Z,103188.56
2023-02-28T01:00:31.663Z,103197.31
2023-02-28T01:02:58.199Z,103196.97
2023-02-28T01:05:24.888Z,103192.41
2023-02-28T01:07:51.458Z,103201.03
2023-02-28T01:10:18.124Z,103205.31
2023-02-28T01:12:44.579Z,103198.81
2023-02-28T01:15:11.986Z,103200.28
2023-02-28T01:17:38.498Z,103194.75
2023-02-28T01:20:05.517Z,103190.16
2023-02-28T01:22:31.955Z,103199.00
2023-02-28T01:24:58.445Z,103189.13
2023-02-28T01:27:24.929Z,103182.50
2023-02-28T01:29:52.739Z,103184.72
2023-02-28T01:32:19.208Z,103185.38
2023-02-28T01:34:45.807Z,103182.16
2023-02-28T01:37:12.315Z,103180.00
2023-02-28T01:39:38.888Z,103186.63
2023-02-28T01:42:05.378Z,103178.50
2023-02-28T01:44:55.398Z,103181.19
2023-02-28T01:47:23.478Z,103174.03
2023-02-28T01:49:52.478Z,103179.13
2023-02-28T01:52:19.993Z,103167.41
2023-02-28T01:54:51.254Z,103175.28
2023-02-28T01:57:22.835Z,103170.69
2023-02-28T01:59:55.357Z,103166.53
2023-02-28T02:02:24.449Z,103161.22
2023-02-28T02:05:02.679Z,103157.28
2023-02-28T02:07:34.361Z,103159.34
2023-02-28T02:10:04.188Z,103149.72
2023-02-28T02:12:56.759Z,103155.28
2023-02-28T02:15:35.251Z,103151.03
2023-02-28T02:18:15.040Z,103149.31
2023-02-28T02:21:12.465Z,103158.16
2023-02-28T02:23:56.948Z,103161.69
2023-02-28T02:26:39.792Z,103159.75
2023-02-28T02:29:18.126Z,103161.03
2023-02-28T02:32:12.068Z,103156.34
2023-02-28T02:34:53.052Z,103162.16
2023-02-28T02:37:43.978Z,103159.09
2023-02-28T02:40:20.875Z,103157.16
2023-02-28T02:43:03.710Z,103167.38
2023-02-28T02:45:44.462Z,103164.47
2023-02-28T02:48:16.745Z,103155.31
2023-02-28T02:50:53.830Z,103163.31
2023-02-28T02:53:27.787Z,103156.03
2023-02-28T02:55:55.943Z,103161.16
2023-02-28T02:58:29.952Z,103160.06
2023-02-28T03:01:02.373Z,103158.97
2023-02-28T03:03:31.992Z,103158.88
2023-02-28T03:06:00.851Z,103160.69
2023-02-28T03:08:28.552Z,103169.66
2023-02-28T03:11:02.467Z,103167.72
2023-02-28T03:13:47.332Z,103166.03
2023-02-28T03:16:24.036Z,103164.19
2023-02-28T03:19:12.344Z,103165.16
2023-02-28T03:21:58.067Z,103160.44
2023-02-28T03:24:33.671Z,103161.22
2023-02-28T03:27:22.195Z,103165.78
2023-02-28T03:29:54.637Z,103168.47
2023-02-28T03:32:27.104Z,103168.47
2023-02-28T03:35:22.865Z,103169.00
2023-02-28T03:38:05.885Z,103174.22
2023-02-28T03:40:35.897Z,103174.09
2023-02-28T03:43:11.483Z,103180.16
2023-02-28T03:45:40.574Z,103169.59
2023-02-28T03:48:14.616Z,103172.50
2023-02-28T03:50:46.691Z,103172.63
2023-02-28T03:53:25.824Z,103178.94
2023-02-28T03:56:13.974Z,103185.00
2023-02-28T03:58:48.438Z,103185.84
2023-02-28T04:01:42.349Z,103182.22
2023-02-28T04:04:10.974Z,103183.06
2023-02-28T04:06:37.785Z,103182.84
2023-02-28T04:09:06.433Z,103176.19
2023-02-28T04:11:53.458Z,103182.91
2023-02-28T04:14:20.313Z,103185.34
2023-02-28T04:16:47.057Z,103185.34
2023-02-28T04:19:15.160Z,103179.50
2023-02-28T04:21:44.980Z,103185.56
2023-02-28T04:24:15.649Z,103181.22
2023-02-28T04:26:44.878Z,103187.28
2023-02-28T04:29:13.201Z,103188.38
2023-02-28T04:31:40.415Z,103188.56
2023-02-28T04:34:07.438Z,103184.31
2023-02-28T04:36:33.957Z,103185.50
2023-02-28T04:39:00.682Z,103190.00
2023-02-28T04:41:29.659Z,103192.03
2023-02-28T04:43:58.259Z,103192.28
2023-02-28T04:46:24.854Z,103192.47
2023-02-28T04:48:51.434Z,103195.38
2023-02-28T04:51:20.010Z,103189.53
2023-02-28T04:53:47.682Z,103190.28
2023-02-28T04:56:16.905Z,103196.81
2023-02-28T04:58:43.775Z,103196.19
2023-02-28T05:01:20.908Z,103192.47
2023-02-28T05:03:47.939Z,103195.59
2023-02-28T05:06:14.922Z,103188.75
2023-02-28T05:08:42.012Z,103187.50
2023-02-28T05:11:22.671Z,103184.06
2023-02-28T05:13:50.245Z,103182.78
2023-02-28T05:16:17.600Z,103185.78
2023-02-28T05:18:44.130Z,103197.53
2023-02-28T05:21:36.555Z,103196.78
2023-02-28T05:24:08.872Z,103203.06
2023-02-28T05:26:38.064Z,103204.56
2023-02-28T05:29:05.973Z,103199.00
2023-02-28T05:31:32.941Z,103197.06
2023-02-28T05:33:59.767Z,103191.56
2023-02-28T05:36:26.496Z,103198.38
2023-02-28T05:38:53.034Z,103192.59
2023-02-28T05:41:20.868Z,103185.34
2023-02-28T05:43:48.497Z,103188.75
2023-02-28T05:46:15.246Z,103192.25
2023-02-28T05:48:48.185Z,103189.31
2023-02-28T05:51:14.698Z,103192.72
2023-02-28T05:53:41.244Z,103198.03
2023-02-28T05:56:07.753Z,103207.78
2023-02-28T05:58:35.652Z,103202.72
2023-02-28T06:01:22.567Z,103187.09
2023-02-28T06:03:49.189Z,103186.63
2023-02-28T06:06:15.704Z,103189.19
2023-02-28T06:08:44.321Z,103199.44
2023-02-28T06:11:10.811Z,103195.38
2023-02-28T06:13:37.509Z,103196.44
2023-02-28T06:16:04.197Z,103196.44
2023-02-28T06:18:30.687Z,103195.81
2023-02-28T06:20:57.194Z,103197.84
2023-02-28T06:23:23.799Z,103190.69
2023-02-28T06:25:50.618Z,103188.56
2023-02-28T06:28:17.238Z,103182.69
2023-02-28T06:30:46.141Z,103193.34
2023-02-28T06:33:13.068Z,103194.09
2023-02-28T06:35:39.642Z,103188.13
2023-02-28T06:38:06.142Z,103196.22
2023-02-28T06:40:36.734Z,103198.34
2023-02-28T06:43:04.102Z,103199.59
2023-02-28T06:45:31.003Z,103195.13
2023-02-28T06:47:59.075Z,103197.78
2023-02-28T06:50:25.546Z,103196.00
2023-02-28T06:52:54.922Z,103199.59
2023-02-28T06:55:21.500Z,103212.16
2023-02-28T06:57:48.000Z,103208.75
2023-02-28T07:00:15.081Z,103210.44
2023-02-28T07:02:41.534Z,103221.00
2023-02-28T07:05:08.741Z,103217.47
2023-02-28T07:07:37.350Z,103221.47
2023-02-28T07:10:04.221Z,103216.03
2023-02-28T07:12:30.727Z,103216.66
2023-02-28T07:14:57.796Z,103216.44
2023-02-28T07:17:24.352Z,103213.38
2023-02-28T07:19:50.822Z,103216.16
2023-02-28T07:22:17.270Z,103221.59
2023-02-28T07:24:43.717Z,103225.13
2023-02-28T07:27:10.192Z,103232.59
2023-02-28T07:29:37.145Z,103225.00
2023-02-28T07:32:03.783Z,103221.72
2023-02-28T07:34:30.412Z,103220.97
2023-02-28T07:36:56.926Z,103217.53
2023-02-28T07:39:23.488Z,103218.22
2023-02-28T07:41:50.146Z,103233.03
2023-02-28T07:44:16.669Z,103229.50
2023-02-28T07:46:43.327Z,103229.16
2023-02-28T07:49:09.851Z,103232.69
2023-02-28T07:51:36.288Z,103228.00
2023-02-28T07:54:03.055Z,103231.41
2023-02-28T07:56:30.030Z,103227.97
2023-02-28T07:58:56.718Z,103227.44
2023-02-28T08:01:23.305Z,103237.09
2023-02-28T08:03:49.822Z,103237.09
2023-02-28T08:06:22.176Z,103243.00
2023-02-28T08:08:49.362Z,103240.88
2023-02-28T08:11:17.181Z,103248.19
2023-02-28T08:13:45.023Z,103250.44
2023-02-28T08:16:15.342Z,103240.75
2023-02-28T08:18:41.967Z,103251.00
2023-02-28T08:21:09.959Z,103254.41
2023-02-28T08:23:36.973Z,103259.06
2023-02-28T08:26:04.157Z,103237.47
2023-02-28T08:28:30.714Z,103238.53
2023-02-28T08:30:57.528Z,103247.31
2023-02-28T08:33:25.171Z,103254.25
2023-02-28T08:35:55.736Z,103242.59
2023-02-28T08:38:22.804Z,103246.59
2023-02-28T08:40:49.709Z,103248.72
2023-02-28T08:43:16.227Z,103240.22
2023-02-28T08:45:42.830Z,103247.66
2023-02-28T08:48:09.457Z,103238.38
2023-02-28T08:50:35.941Z,103238.38
2023-02-28T08:53:02.469Z,103238.13
2023-02-28T08:55:29.265Z,103237.44
2023-02-28T08:57:55.905Z,103241.31
2023-02-28T09:00:23.047Z,103239.41
2023-02-28T09:02:49.600Z,103235.31
2023-02-28T09:05:16.151Z,103234.53
2023-02-28T09:07:42.684Z,103224.84
2023-02-28T09:10:10.351Z,103221.22
2023-02-28T09:12:36.919Z,103224.59
2023-02-28T09:15:04.246Z,103229.84
2023-02-28T09:17:31.330Z,103240.38
2023-02-28T09:19:58.355Z,103240.72
2023-02-28T09:22:25.188Z,103242.88
2023-02-28T09:24:51.745Z,103243.66
2023-02-28T09:27:18.228Z,103232.13
2023-02-28T09:29:44.743Z,103238.06
2023-02-28T09:32:11.371Z,103234.16
2023-02-28T09:34:38.493Z,103238.03
2023-02-28T09:37:05.445Z,103240.72
2023-02-28T09:39:32.700Z,103242.53
2023-02-28T09:41:59.483Z,103241.41
2023-02-28T09:44:31.926Z,103242.81
2023-02-28T09:47:12.182Z,103243.38
2023-02-28T09:49:43.214Z,103251.00
2023-02-28T09:52:22.532Z,103242.13
2023-02-28T09:54:49.092Z,103240.25
2023-02-28T09:57:18.224Z,103240.44
2023-02-28T10:00:11.362Z,103245.56
2023-02-28T10:03:20.261Z,103240.03
2023-02-28T10:06:05.085Z,103233.53
2023-02-28T10:08:42.253Z,103237.84
2023-02-28T10:11:12.597Z,103237.00
2023-02-28T10:13:53.811Z,103240.06
2023-02-28T10:16:32.280Z,103228.31
2023-02-28T10:19:16.023Z,103240.38
2023-02-28T10:21:48.728Z,103225.53
2023-02-28T10:24:21.093Z,103224.66
2023-02-28T10:26:48.895Z,103213.91
2023-02-28T10:29:16.414Z,103222.13
2023-02-28T10:31:43.215Z,103228.91
2023-02-28T10:34:13.573Z,103214.88
2023-02-28T10:36:40.901Z,103232.16
2023-02-28T10:39:39.348Z,103226.25
2023-02-28T10:42:20.640Z,103232.69
2023-02-28T10:44:47.219Z,103232.88
2023-02-28T10:47:18.291Z,103229.91
2023-02-28T10:49:50.200Z,103226.78
2023-02-28T10:52:36.067Z,103221.13
2023-02-28T10:55:26.330Z,103233.81
2023-02-28T10:57:53.565Z,103219.41
2023-02-28T11:00:23.533Z,103215.22
2023-02-28T11:02:50.202Z,103209.78
2023-02-28T11:05:31.903Z,103199.91
2023-02-28T11:08:15.178Z,103209.78
2023-02-28T11:10:47.425Z,103200.47
2023-02-28T11:13:29.312Z,103198.22
2023-02-28T11:15:59.929Z,103195.94
2023-02-28T11:18:49.448Z,103190.56
2023-02-28T11:21:24.562Z,103199.38
2023-02-28T11:23:53.456Z,103194.53
2023-02-28T11:26:38.160Z,103187.31
2023-02-28T11:29:20.086Z,103202.16
2023-02-28T11:32:02.286Z,103188.16
2023-02-28T11:34:29.015Z,103185.63
2023-02-28T11:36:58.704Z,103184.06
2023-02-28T11:39:27.046Z,103185.50
2023-02-28T11:42:12.401Z,103180.94
2023-02-28T11:44:56.039Z,103173.84
2023-02-28T11:47:22.462Z,103177.72
2023-02-28T11:50:14.386Z,103169.66
2023-02-28T11:52:53.466Z,103164.09
2023-02-28T11:55:22.647Z,103179.97
2023-02-28T11:58:18.026Z,103175.25
2023-02-28T12:01:23.779Z,103170.44
2023-02-28T12:03:55.986Z,103166.47
2023-02-28T12:06:58.533Z,103163.06
2023-02-28T12:09:54.882Z,103166.72
2023-02-28T12:12:29.768Z,103163.56
2023-02-28T12:15:17.873Z,103155.47
2023-02-28T12:18:05.560Z,103163.09
2023-02-28T12:20:31.968Z,103159.94
2023-02-28T12:23:20.146Z,103162.56
2023-02-28T12:26:01.792Z,103160.00
2023-02-28T12:28:34.998Z,103149.56
2023-02-28T12:31:07.134Z,103142.97
2023-02-28T12:33:37.639Z,103141.56
2023-02-28T12:36:11.400Z,103146.09
2023-02-28T12:38:56.817Z,103151.16
2023-02-28T12:41:38.311Z,103140.66
2023-02-28T12:44:12.635Z,103153.16
2023-02-28T12:46:52.541Z,103143.25
2023-02-28T12:49:42.207Z,103125.66
2023-02-28T12:52:13.610Z,103130.75
2023-02-28T12:55:04.976Z,103133.06
2023-02-28T12:57:49.264Z,103123.88
2023-02-28T13:00:23.109Z,103127.63
2023-02-28T13:03:20.379Z,103126.09
2023-02-28T13:05:46.816Z,103126.28
2023-02-28T13:08:31.952Z,103118.38
2023-02-28T13:10:58.753Z,103119.25
2023-02-28T13:13:30.689Z,103117.81
2023-02-28T13:16:07.857Z,103107.44
2023-02-28T13:18:38.060Z,103109.44
2023-02-28T13:21:07.071Z,103114.00
2023-02-28T13:23:39.914Z,103115.72
2023-02-28T13:26:06.707Z,103110.19
2023-02-28T13:28:51.888Z,103104.59
2023-02-28T13:31:19.494Z,103098.78
2023-02-28T13:33:45.878Z,103102.06
2023-02-28T13:36:26.834Z,103096.16
2023-02-28T13:39:02.884Z,103099.78
2023-02-28T13:41:32.524Z,103099.16
2023-02-28T13:44:20.699Z,103096.94
2023-02-28T13:46:50.172Z,103102.78
2023-02-28T13:49:34.729Z,103090.59
2023-02-28T13:52:07.077Z,103089.59
2023-02-28T13:54:43.955Z,103089.59
2023-02-28T13:57:51.971Z,103097.59
2023-02-28T14:00:43.677Z,103084.47
2023-02-28T14:03:39.100Z,103083.91
2023-02-28T14:06:33.185Z,103083.47
2023-02-28T14:09:04.846Z,103076.66
2023-02-28T14:11:37.346Z,103071.06
2023-02-28T14:14:06.364Z,103077.63
2023-02-28T14:16:46.293Z,103065.84
2023-02-28T14:19:14.765Z,103070.53
2023-02-28T14:22:03.272Z,103070.38
2023-02-28T14:25:01.144Z,103065.19
2023-02-28T14:27:38.942Z,103068.25
2023-02-28T14:30:22.371Z,103064.72
2023-02-28T14:33:00.384Z,103065.19
2023-02-28T14:35:26.943Z,103056.59
2023-02-28T14:37:55.778Z,103065.69
2023-02-28T14:40:33.466Z,103056.53
2023-02-28T14:43:03.154Z,103057.91
2023-02-28T14:45:37.991Z,103055.09
2023-02-28T14:48:09.876Z,103061.97
2023-02-28T14:50:38.242Z,103050.56
2023-02-28T14:53:16.337Z,103050.94
2023-02-28T14:55:47.205Z,103053.63
2023-02-28T14:58:33.894Z,103057.72
2023-02-28T15:01:03.502Z,103055.91
2023-02-28T15:03:36.429Z,103054.03
2023-02-28T15:06:13.712Z,103056.22
2023-02-28T15:08:40.231Z,103054.13
2023-02-28T15:11:13.766Z,103047.09
2023-02-28T15:13:47.826Z,103047.44
2023-02-28T15:16:17.057Z,103054.75
2023-02-28T15:18:50.458Z,103054.00
2023-02-28T15:21:26.076Z,103053.91
2023-02-28T15:23:57.969Z,103056.88
2023-02-28T15:26:31.539Z,103059.19
2023-02-28T15:29:01.704Z,103058.34
2023-02-28T15:31:56.496Z,103059.50
2023-02-28T15:34:43.049Z,103067.69
2023-02-28T15:37:33.269Z,103061.19
2023-02-28T15:40:34.374Z,103066.03
2023-02-28T15:43:13.264Z,103055.75
2023-02-28T15:45:47.324Z,103058.72
2023-02-28T15:48:18.779Z,103049.53
2023-02-28T15:50:47.923Z,103045.38
2023-02-28T15:53:18.338Z,103042.59
2023-02-28T15:55:45.565Z,103050.78
2023-02-28T15:58:13.965Z,103043.31
2023-02-28T16:00:44.242Z,103046.56
2023-02-28T16:03:38.603Z,103045.47
2023-02-28T16:06:27.123Z,103050.69
2023-02-28T16:08:54.124Z,103044.31
2023-02-28T16:11:23.024Z,103052.97
2023-02-28T16:13:51.176Z,103057.91
2023-02-28T16:16:20.107Z,103053.94
2023-02-28T16:18:47.322Z,103059.91
2023-02-28T16:21:13.756Z,103059.88
2023-02-28T16:23:40.295Z,103065.53
2023-02-28T16:26:08.656Z,103060.88
2023-02-28T16:28:38.316Z,103056.19
2023-02-28T16:31:08.111Z,103062.56
2023-02-28T16:33:34.894Z,103065.53
2023-02-28T16:36:01.644Z,103057.59
2023-02-28T16:38:28.249Z,103065.94
2023-02-28T16:40:58.713Z,103062.13
2023-02-28T16:43:27.460Z,103064.91
2023-02-28T16:45:58.770Z,103063.50
2023-02-28T16:48:26.388Z,103067.97
2023-02-28T16:50:52.929Z,103074.69
2023-02-28T16:53:19.430Z,103080.59
2023-02-28T16:55:46.152Z,103080.88
2023-02-28T16:58:16.899Z,103077.19
2023-02-28T17:00:44.368Z,103084.78
2023-02-28T17:03:32.056Z,103086.09
2023-02-28T17:05:59.080Z,103090.31
2023-02-28T17:08:25.600Z,103099.25
2023-02-28T17:10:52.177Z,103099.66
2023-02-28T17:13:18.776Z,103093.84
2023-02-28T17:15:47.276Z,103100.00
2023-02-28T17:18:20.967Z,103094.69
2023-02-28T17:20:47.860Z,103103.13
2023-02-28T17:23:14.578Z,103105.34
2023-02-28T17:25:41.036Z,103106.94
2023-02-28T17:28:07.522Z,103110.41
2023-02-28T17:30:35.341Z,103115.78
2023-02-28T17:33:02.034Z,103115.56
2023-02-28T17:35:28.685Z,103119.97
2023-02-28T17:37:55.284Z,103120.19
2023-02-28T17:40:24.460Z,103127.75
2023-02-28T17:42:53.132Z,103132.91
2023-02-28T17:45:20.692Z,103130.94
2023-02-28T17:47:51.028Z,103137.53
2023-02-28T17:50:21.096Z,103129.00
2023-02-28T17:52:47.694Z,103133.03
2023-02-28T17:55:14.799Z,103135.09
2023-02-28T17:57:42.816Z,103130.72
2023-02-28T18:00:14.459Z,103130.47
2023-02-28T18:02:42.609Z,103131.56
2023-02-28T18:05:09.875Z,103147.47
2023-02-28T18:07:40.558Z,103140.69
2023-02-28T18:10:12.426Z,103140.69
2023-02-28T18:12:39.350Z,103144.78
2023-02-28T18:15:07.140Z,103150.22
2023-02-28T18:17:33.707Z,103148.59
2023-02-28T18:20:00.421Z,103143.25
2023-02-28T18:22:26.930Z,103141.78
2023-02-28T18:24:53.430Z,103135.00
2023-02-28T18:27:23.371Z,103138.88
2023-02-28T18:29:52.410Z,103137.16
2023-02-28T18:32:18.942Z,103144.41
2023-02-28T18:34:45.453Z,103145.00
2023-02-28T18:37:11.961Z,103142.47
2023-02-28T18:39:38.751Z,103154.34
2023-02-28T18:42:05.319Z,103147.50
2023-02-28T18:44:31.825Z,103149.69
2023-02-28T18:46:58.412Z,103145.53
2023-02-28T18:49:24.978Z,103146.94
2023-02-28T18:51:51.678Z,103146.56
2023-02-28T18:54:18.184Z,103149.03
2023-02-28T18:56:45.308Z,103152.69
2023-02-28T18:59:12.263Z,103151.31
2023-02-28T19:01:39.036Z,103154.09
2023-02-28T19:04:06.373Z,103155.31
2023-02-28T19:06:34.144Z,103151.13
2023-02-28T19:09:03.816Z,103155.72
2023-02-28T19:11:30.668Z,103151.59
2023-02-28T19:13:57.839Z,103151.81
2023-02-28T19:16:30.856Z,103160.97
2023-02-28T19:18:57.850Z,103150.78
2023-02-28T19:21:24.857Z,103152.94
2023-02-28T19:23:52.363Z,103150.47
2023-02-28T19:26:22.204Z,103156.75
2023-02-28T19:28:49.147Z,103162.31
2023-02-28T19:31:22.051Z,103165.19
2023-02-28T19:33:48.969Z,103168.31
2023-02-28T19:36:15.837Z,103166.91
2023-02-28T19:38:44.652Z,103176.19
2023-02-28T19:41:13.222Z,103169.38
2023-02-28T19:43:43.443Z,103176.84
2023-02-28T19:46:11.855Z,103167.25
2023-02-28T19:48:38.723Z,103173.88
2023-02-28T19:51:09.324Z,103179.59
2023-02-28T19:53:38.499Z,103186.22
2023-02-28T19:56:05.457Z,103185.69
2023-02-28T19:58:32.794Z,103189.41
2023-02-28T20:01:06.671Z,103193.22
2023-02-28T20:03:33.355Z,103191.16
2023-02-28T20:06:09.745Z,103192.41
2023-02-28T20:08:37.261Z,103192.31
2023-02-28T20:11:08.906Z,103199.34
2023-02-28T20:13:36.035Z,103190.41
2023-02-28T20:16:06.110Z,103188.69
2023-02-28T20:18:34.208Z,103192.53
2023-02-28T20:21:01.859Z,103188.16
2023-02-28T20:23:28.406Z,103185.88
2023-02-28T20:25:58.854Z,103186.31
2023-02-28T20:28:25.573Z,103187.75
2023-02-28T20:30:52.181Z,103188.25
2023-02-28T20:33:19.599Z,103185.13
2023-02-28T20:35:46.346Z,103185.53
2023-02-28T20:38:12.909Z,103188.50
2023-02-28T20:40:39.529Z,103184.91
2023-02-28T20:43:06.314Z,103187.34
2023-02-28T20:45:32.873Z,103188.31
2023-02-28T20:47:59.337Z,103188.63
2023-02-28T20:50:25.895Z,103185.47
2023-02-28T20:52:52.920Z,103189.88
2023-02-28T20:55:19.405Z,103187.31
2023-02-28T20:57:45.924Z,103190.78
2023-02-28T21:00:16.258Z,103194.75
2023-02-28T21:02:42.773Z,103193.34
2023-02-28T21:05:09.795Z,103203.31
2023-02-28T21:07:36.448Z,103197.41
2023-02-28T21:10:03.275Z,103202.25
2023-02-28T21:12:29.775Z,103208.22
2023-02-28T21:14:56.278Z,103202.25
2023-02-28T21:17:22.768Z,103203.56
2023-02-28T21:19:49.239Z,103209.28
2023-02-28T21:22:15.872Z,103209.28
2023-02-28T21:24:42.450Z,103217.13
2023-02-28T21:27:08.904Z,103209.28
2023-02-28T21:29:35.391Z,103212.78
2023-02-28T21:32:02.404Z,103211.94
2023-02-28T21:34:29.195Z,103215.03
2023-02-28T21:36:55.664Z,103210.00
2023-02-28T21:39:28.819Z,103204.69
2023-02-28T21:41:56.919Z,103213.63
2023-02-28T21:44:23.388Z,103206.59
2023-02-28T21:46:54.628Z,103213.63
2023-02-28T21:49:21.304Z,103212.75
2023-02-28T21:51:48.202Z,103217.31
2023-02-28T21:54:14.729Z,103219.31
2023-02-28T21:56:41.298Z,103211.22
2023-02-28T21:59:09.574Z,103210.75
2023-02-28T22:01:46.262Z,103206.34
2023-02-28T22:04:21.111Z,103211.50
2023-02-28T22:06:50.444Z,103212.94
2023-02-28T22:09:17.378Z,103209.97
2023-02-28T22:11:44.048Z,103212.38
2023-02-28T22:14:12.546Z,103217.59
2023-02-28T22:16:51.263Z,103222.91
2023-02-28T22:19:19.607Z,103221.22
2023-02-28T22:21:47.498Z,103232.78
2023-02-28T22:24:14.675Z,103232.34
2023-02-28T22:26:41.276Z,103231.19
2023-02-28T22:29:07.791Z,103231.56
2023-02-28T22:31:36.148Z,103231.94
2023-02-28T22:34:08.609Z,103229.53
2023-02-28T22:36:36.591Z,103226.09
2023-02-28T22:39:04.867Z,103234.69
2023-02-28T22:41:31.923Z,103230.22
2023-02-28T22:44:02.045Z,103224.50
2023-02-28T22:46:30.493Z,103222.03
2023-02-28T22:49:02.176Z,103227.25
2023-02-28T22:51:29.353Z,103225.25
2023-02-28T22:53:58.168Z,103215.59
2023-02-28T22:56:27.047Z,103220.81
2023-02-28T22:58:56.310Z,103217.84
2023-02-28T23:01:25.248Z,103211.34
2023-02-28T23:03:52.040Z,103214.19
2023-02-28T23:06:28.568Z,103213.25
2023-02-28T23:08:58.767Z,103208.69
2023-02-28T23:11:28.165Z,103213.06
2023-02-28T23:14:01.081Z,103217.59
2023-02-28T23:16:47.619Z,103216.78
2023-02-28T23:19:20.513Z,103222.59
2023-02-28T23:21:47.631Z,103220.13
2023-02-28T23:24:17.109Z,103228.16
2023-02-28T23:26:46.544Z,103227.88
2023-02-28T23:29:15.443Z,103231.31
2023-02-28T23:31:42.336Z,103231.66
2023-02-28T23:34:09.268Z,103236.28
2023-02-28T23:36:35.722Z,103238.41
2023-02-28T23:39:02.200Z,103243.13
2023-02-28T23:41:28.708Z,103242.84
2023-02-28T23:43:55.326Z,103241.22
2023-02-28T23:46:22.281Z,103236.59
2023-02-28T23:48:49.291Z,103231.16
2023-02-28T23:51:19.201Z,103234.56
2023-02-28T23:53:47.584Z,103238.00
2023-02-28T23:56:16.758Z,103230.97
2023-02-28T23:58:45.759Z,103234.91
